Terminal Aerodrome Forecast
Issued by NWS

Home | Current Version | Previous Version | Text Only | Print | Product List | Glossary On
Versions: 1 2 3 4 5 6 7 8 9 10 11 12
725
FTUS43 KDVN 061736
TAFCID
TAF
KCID 061736Z 0618/0718 26013G20KT P6SM SKC
     FM070100 24010KT P6SM SCT150
     FM071300 01012KT P6SM VCSH BKN050 BKN100=

USA.gov is the U.S. government's official web portal to all federal, state and local government web resources and services.